Latest Coastal Weather Observations for Dum In Mirrie

IDD60701

Issued at 6:45 am CST Wednesday 3 September 2014 (issued every 10 minutes, with the page automatically refreshed every 10 minutes)

About coastal observations | Map of coastal stations | Coastal observations for NT | Marine services | Other Formats
Station Details ID: 014277 Name: DUM IN MIRRIE AIRSTRIP Lat: -12.63 Lon: 130.37 Height: 3.5 m
Data from the previous 72 hours. | See also: Recent months at Dum In Mirrie
Date/Time
CST
Temp

°C
Wind Pressure Rain
since 9am
mm
Weather Cloud Vis
km
Sea
Height
m
Swell
Dir
 
Speed
knots
Gust
knots
hPa Trend Height
m
Period
s
Dir
03/06:30am 18.8 ESE 0 0 1014.5 - 0.0 - - - - - - -
03/06:00am 18.5 E 2 2 1014.3 - 0.0 - - - - - - -
03/05:30am 18.6 ENE 2 2 1013.9 - 0.0 - - - - - - -
03/05:00am 18.5 CALM 0 2 1013.6 - 0.0 - - - - - - -
03/04:30am 19.4 S 1 2 1013.4 - 0.0 - - - - - - -
03/04:00am 19.9 SSE 2 2 1013.6 - 0.0 - - - - - - -
03/03:30am 19.6 SSE 2 2 1013.7 - 0.0 - - - - - - -
03/03:00am 19.7 CALM 0 0 1014.0 - 0.0 - - - - - - -
03/02:30am 19.8 CALM 0 0 1014.1 - 0.0 - - - - - - -
03/02:00am 20.2 CALM 0 0 1014.3 - 0.0 - - - - - - -
03/01:30am 21.3 CALM 0 0 1014.5 - 0.0 - - - - - - -
03/01:00am 23.0 NNW 1 2 1014.8 - 0.0 - - - - - - -
03/12:30am 24.3 NNW 3 6 1015.0 - 0.0 - - - - - - -
03/12:00am 24.4 NNW 3 6 1015.3 - 0.0 - - - - - - -
 
Date/Time
CST
Temp

°C
Wind Pressure Rain
since 9am
mm
Weather Cloud Vis
km
Sea
Height
m
Swell
Dir
 
Speed
knots
Gust
knots
hPa Trend Height
m
Period
s
Dir
02/11:30pm 24.3 NW 2 4 1015.3 - 0.0 - - - - - - -
02/11:00pm 24.7 WNW 3 4 1015.4 - 0.0 - - - - - - -
02/10:30pm 24.6 WNW 3 5 1015.1 - 0.0 - - - - - - -
02/10:00pm 25.0 WNW 3 6 1015.0 - 0.0 - - - - - - -
02/09:30pm 25.0 W 4 6 1014.5 - 0.0 - - - - - - -
02/09:00pm 24.9 W 3 5 1014.1 - 0.0 - - - - - - -
02/08:30pm 25.0 W 4 7 1013.6 - 0.0 - - - - - - -
02/08:00pm 25.1 W 3 5 1013.4 - 0.0 - - - - - - -
02/07:30pm 25.1 W 3 4 1013.0 - 0.0 - - - - - - -
02/07:00pm 25.3 W 2 4 1012.6 - 0.0 - - - - - - -
02/06:30pm 25.9 W 4 6 1012.2 - 0.0 - - - - - - -
02/06:00pm 27.0 WNW 4 7 1012.0 - 0.0 - - - - - - -
02/05:30pm 27.3 W 4 8 1011.8 - 0.0 - - - - - - -
02/05:00pm 27.8 W 5 8 1011.8 - 0.0 - - - - - - -
02/04:30pm 28.1 W 5 9 1011.7 - 0.0 - - - - - - -
02/04:00pm 28.7 WNW 5 10 1011.6 - 0.0 - - - - - - -
02/03:30pm 28.6 NW 6 11 1011.8 - 0.0 - - - - - - -
02/03:00pm 28.6 NW 6 9 1012.1 - 0.0 - - - - - - -
02/02:30pm 28.3 WNW 6 12 1012.4 - 0.0 - - - - - - -
02/02:00pm 28.4 WNW 6 10 1012.7 - 0.0 - - - - - - -
02/01:30pm 28.1 NW 7 11 1013.0 - 0.0 - - - - - - -
02/01:00pm 28.4 NW 7 10 1013.5 - 0.0 - - - - - - -
02/12:30pm 28.1 WNW 6 9 1014.0 - 0.0 - - - - - - -
02/12:00pm 28.1 NW 5 9 1014.5 - 0.0 - - - - - - -
02/11:30am 28.1 N 5 9 1014.9 - 0.0 - - - - - - -
02/11:00am 26.7 W 3 4 1015.2 - 0.0 - - - - - - -
02/10:30am 27.3 W 3 7 1015.6 - 0.0 - - - - - - -
02/10:00am 27.1 NW 2 4 1015.5 - 0.0 - - - - - - -
02/09:30am 27.2 NNE 3 6 1015.3 - 0.0 - - - - - - -
02/09:00am 25.6 NNW 3 4 1015.2 - 0.0 - - - - - - -
02/08:30am 24.5 NNE 1 2 1015.0 - 0.0 - - - - - - -
02/08:00am 22.2 CALM 0 0 1014.8 - 0.0 - - - - - - -
02/07:30am 19.0 CALM 0 0 1014.7 - 0.0 - - - - - - -
02/07:00am 18.2 CALM 0 0 1014.7 - 0.0 - - - - - - -
02/06:30am 19.6 CALM 0 1 1014.6 - 0.0 - - - - - - -
02/06:00am 21.0 ESE 3 4 1014.4 - 0.0 - - - - - - -
02/05:30am 21.1 ESE 1 2 1014.2 - 0.0 - - - - - - -
02/05:00am 21.8 ENE 3 4 1014.1 - 0.0 - - - - - - -
02/04:30am 21.8 ENE 3 4 1013.8 - 0.0 - - - - - - -
02/04:00am 20.8 E 2 3 1013.8 - 0.0 - - - - - - -
02/03:30am 21.3 ESE 2 3 1013.7 - 0.0 - - - - - - -
02/03:00am 21.1 SE 1 2 1013.7 - 0.0 - - - - - - -
02/02:30am 22.1 ENE 3 6 1013.9 - 0.0 - - - - - - -
02/02:00am 22.4 SSE 3 5 1013.4 - 0.0 - - - - - - -
02/01:30am 22.4 S 2 4 1013.4 - 0.0 - - - - - - -
02/01:00am 23.3 S 2 3 1013.5 - 0.0 - - - - - - -
02/12:30am 24.2 SSW 3 6 1013.8 - 0.0 - - - - - - -
02/12:00am 24.6 SW 5 7 1013.8 - 0.0 - - - - - - -
 
Date/Time
CST
Temp

°C
Wind Pressure Rain
since 9am
mm
Weather Cloud Vis
km
Sea
Height
m
Swell
Dir
 
Speed
knots
Gust
knots
hPa Trend Height
m
Period
s
Dir
01/11:30pm 24.6 SSW 5 10 1013.8 - 0.0 - - - - - - -
01/11:00pm 24.9 SSW 6 9 1013.8 - 0.0 - - - - - - -
01/10:30pm 24.9 SSW 5 8 1013.7 - 0.0 - - - - - - -
01/10:00pm 25.0 SW 3 7 1013.7 - 0.0 - - - - - - -
01/09:30pm 25.0 SW 4 7 1013.6 - 0.0 - - - - - - -
01/09:00pm 24.9 WSW 2 6 1013.1 - 0.0 - - - - - - -
01/08:30pm 25.1 WSW 2 5 1012.7 - 0.0 - - - - - - -
01/08:00pm 25.2 SW 3 6 1012.5 - 0.0 - - - - - - -
01/07:30pm 25.2 WSW 2 4 1012.0 - 0.0 - - - - - - -
01/07:00pm 25.4 WSW 5 8 1011.6 - 0.0 - - - - - - -
01/06:30pm 25.7 W 5 7 1011.5 - 0.0 - - - - - - -
01/06:00pm 26.5 W 4 8 1011.4 - 0.0 - - - - - - -
01/05:30pm 27.3 W 5 9 1011.2 - 0.0 - - - - - - -
01/05:00pm 27.9 W 5 8 1011.0 - 0.0 - - - - - - -
01/04:30pm 27.9 W 5 10 1011.0 - 0.0 - - - - - - -
01/04:00pm 28.0 W 7 11 1011.1 - 0.0 - - - - - - -
01/03:30pm 27.9 W 7 11 1011.2 - 0.0 - - - - - - -
01/03:00pm 28.1 WNW 6 9 1011.4 - 0.0 - - - - - - -
01/02:30pm 27.9 WNW 6 9 1011.7 - 0.0 - - - - - - -
01/02:00pm 27.6 WNW 6 9 1012.3 - 0.0 - - - - - - -
01/01:30pm 27.8 NW 5 10 1012.7 - 0.0 - - - - - - -
01/01:00pm 28.3 NNW 7 11 1013.0 - 0.0 - - - - - - -
01/12:30pm 28.2 N 5 9 1013.7 - 0.0 - - - - - - -
01/12:00pm 28.4 N 5 9 1014.2 - 0.0 - - - - - - -
01/11:30am 27.7 NNW 5 9 1014.5 - 0.0 - - - - - - -
01/11:00am 28.4 N 5 8 1014.9 - 0.0 - - - - - - -
01/10:30am 28.1 N 5 10 1015.2 - 0.0 - - - - - - -
01/10:00am 27.0 NE 4 8 1015.4 - 0.0 - - - - - - -
01/09:30am 27.0 NE 4 7 1015.5 - 0.0 - - - - - - -
01/09:00am 25.9 E 3 5 1015.5 - 0.0 - - - - - - -
01/08:30am 24.3 E 3 4 1015.5 - 0.0 - - - - - - -
01/08:00am 22.6 E 1 2 1015.3 - 0.0 - - - - - - -
01/07:30am 21.2 E 3 4 1015.2 - 0.0 - - - - - - -
01/07:00am 18.6 E 2 3 1014.8 - 0.0 - - - - - - -
01/06:30am 19.2 CALM 0 1 1014.3 - 0.0 - - - - - - -
01/06:00am 20.0 E 3 4 1014.0 - 0.0 - - - - - - -
01/05:30am 19.2 E 2 3 1013.7 - 0.0 - - - - - - -
01/05:00am 19.0 E 2 3 1013.6 - 0.0 - - - - - - -
01/04:30am 18.3 ENE 2 2 1013.2 - 0.0 - - - - - - -
01/04:00am 18.2 NE 1 3 1012.9 - 0.0 - - - - - - -
01/03:30am 19.1 CALM 0 0 1012.7 - 0.0 - - - - - - -
01/03:00am 19.4 NE 1 2 1012.7 - 0.0 - - - - - - -
01/02:30am 20.3 NE 1 2 1012.6 - 0.0 - - - - - - -
01/02:00am 22.0 N 3 8 1012.4 - 0.0 - - - - - - -
01/01:30am 23.2 WSW 2 5 1012.2 - 0.0 - - - - - - -
01/01:00am 23.4 CALM 0 1 1012.3 - 0.0 - - - - - - -
01/12:30am 23.7 SW 1 3 1012.3 - 0.0 - - - - - - -
01/12:00am 23.8 WSW 1 3 1012.5 - 0.0 - - - - - - -
 
Date/Time
CST
Temp

°C
Wind Pressure Rain
since 9am
mm
Weather Cloud Vis
km
Sea
Height
m
Swell
Dir
 
Speed
knots
Gust
knots
hPa Trend Height
m
Period
s
Dir
31/11:30pm 23.9 SW 3 5 1012.5 - 0.0 - - - - - - -
31/11:00pm 24.0 SW 1 3 1012.7 - 0.0 - - - - - - -
31/10:30pm 24.2 WSW 1 4 1012.7 - 0.0 - - - - - - -
31/10:00pm 24.3 W 2 3 1012.7 - 0.0 - - - - - - -
31/09:30pm 24.4 WSW 2 4 1012.6 - 0.0 - - - - - - -
31/09:00pm 24.6 W 3 5 1012.4 - 0.0 - - - - - - -
31/08:30pm 25.0 WSW 3 5 1012.1 - 0.0 - - - - - - -
31/08:00pm 25.0 WSW 4 6 1011.8 - 0.0 - - - - - - -
31/07:30pm 25.0 W 3 7 1011.3 - 0.0 - - - - - - -
31/07:00pm 25.1 W 5 7 1011.0 - 0.0 - - - - - - -
31/06:30pm 25.6 W 4 8 1010.5 - 0.0 - - - - - - -
31/06:00pm 26.6 W 5 8 1010.4 - 0.0 - - - - - - -
31/05:30pm 27.3 W 4 8 1010.4 - 0.0 - - - - - - -
31/05:00pm 27.9 W 5 9 1010.3 - 0.0 - - - - - - -
31/04:30pm 28.3 W 6 11 1010.3 - 0.0 - - - - - - -
31/04:00pm 28.5 WNW 6 10 1010.3 - 0.0 - - - - - - -
31/03:30pm 27.8 NW 6 10 1010.3 - 0.0 - - - - - - -
31/03:00pm 28.0 WNW 7 12 1010.6 - 0.0 - - - - - - -
31/02:30pm 28.5 WNW 6 9 1011.1 - 0.0 - - - - - - -
31/02:00pm 27.7 WNW 6 11 1011.5 - 0.0 - - - - - - -
31/01:30pm 28.3 NNW 7 12 1011.6 - 0.0 - - - - - - -
31/01:00pm 28.3 NNW 7 10 1012.3 - 0.0 - - - - - - -
31/12:30pm 28.1 N 7 10 1012.8 - 0.0 - - - - - - -
31/12:00pm 28.8 ENE 4 10 1013.4 - 0.0 - - - - - - -
31/11:30am 28.4 NNE 4 8 1014.1 - 0.0 - - - - - - -
31/11:00am 28.0 NNE 5 9 1014.5 - 0.0 - - - - - - -
31/10:30am 27.6 NE 5 9 1014.8 - 0.0 - - - - - - -
31/10:00am 26.8 ENE 4 7 1015.0 - 0.0 - - - - - - -
31/09:30am 27.0 ENE 4 7 1014.9 - 0.0 - - - - - - -
31/09:00am 26.1 NE 4 6 1014.8 - 0.0 - - - - - - -
31/08:30am 24.6 NE 3 5 1014.5 - 0.0 - - - - - - -
31/08:00am 22.4 NE 2 4 1014.2 - 0.0 - - - - - - -
31/07:30am 20.6 NE 2 3 1013.9 - 0.0 - - - - - - -
31/07:00am 19.6 NE 2 3 1013.6 - 0.0 - - - - - - -

Other Formats:

Comma delimited format used in spreadsheet applications
http://www.bom.gov.au/fwo/IDD60701/IDD60701.94116.axf

JavaScript Object Notation format (JSON) in row-major order
http://www.bom.gov.au/fwo/IDD60701/IDD60701.94116.json